sensor_id;sensor_type;location;lat;lon;timestamp;P1;durP1;ratioP1;P2;durP2;ratioP2
23743;SDS011;12052;53.478;10.182;2023-08-06T00:02:19;3.33;;;2.10;;
23743;SDS011;12052;53.478;10.182;2023-08-06T00:04:44;3.25;;;1.63;;
23743;SDS011;12052;53.478;10.182;2023-08-06T00:07:10;2.65;;;1.70;;
23743;SDS011;12052;53.478;10.182;2023-08-06T00:09:36;1.92;;;1.65;;
23743;SDS011;12052;53.478;10.182;2023-08-06T00:12:01;3.53;;;1.98;;
23743;SDS011;12052;53.478;10.182;2023-08-06T00:14:27;3.15;;;1.80;;
23743;SDS011;12052;53.478;10.182;2023-08-06T00:16:52;3.90;;;2.17;;
23743;SDS011;12052;53.478;10.182;2023-08-06T00:19:18;5.60;;;2.10;;
23743;SDS011;12052;53.478;10.182;2023-08-06T00:21:44;4.50;;;1.98;;
23743;SDS011;12052;53.478;10.182;2023-08-06T00:24:09;3.45;;;1.90;;
23743;SDS011;12052;53.478;10.182;2023-08-06T00:26:35;4.18;;;2.25;;
23743;SDS011;12052;53.478;10.182;2023-08-06T00:29:00;6.20;;;2.40;;
23743;SDS011;12052;53.478;10.182;2023-08-06T00:31:26;4.13;;;2.33;;
23743;SDS011;12052;53.478;10.182;2023-08-06T00:33:51;3.67;;;2.45;;
23743;SDS011;12052;53.478;10.182;2023-08-06T00:36:17;3.15;;;2.35;;
23743;SDS011;12052;53.478;10.182;2023-08-06T00:38:42;3.40;;;2.30;;
23743;SDS011;12052;53.478;10.182;2023-08-06T00:41:08;5.93;;;2.78;;
23743;SDS011;12052;53.478;10.182;2023-08-06T00:43:34;6.65;;;3.03;;
23743;SDS011;12052;53.478;10.182;2023-08-06T00:45:59;8.55;;;3.00;;
23743;SDS011;12052;53.478;10.182;2023-08-06T00:48:25;7.15;;;3.00;;
23743;SDS011;12052;53.478;10.182;2023-08-06T00:50:51;4.05;;;2.85;;
23743;SDS011;12052;53.478;10.182;2023-08-06T00:53:17;5.63;;;3.20;;
23743;SDS011;12052;53.478;10.182;2023-08-06T00:55:43;4.88;;;3.22;;
23743;SDS011;12052;53.478;10.182;2023-08-06T00:58:10;5.88;;;3.38;;
23743;SDS011;12052;53.478;10.182;2023-08-06T01:00:36;7.47;;;3.72;;
23743;SDS011;12052;53.478;10.182;2023-08-06T01:03:02;5.50;;;3.40;;
23743;SDS011;12052;53.478;10.182;2023-08-06T01:05:28;7.25;;;3.67;;
23743;SDS011;12052;53.478;10.182;2023-08-06T01:13:42;5.50;;;2.80;;
23743;SDS011;12052;53.478;10.182;2023-08-06T01:16:18;4.40;;;2.90;;
23743;SDS011;12052;53.478;10.182;2023-08-06T01:18:46;5.22;;;2.90;;
23743;SDS011;12052;53.478;10.182;2023-08-06T01:21:14;6.65;;;3.47;;
23743;SDS011;12052;53.478;10.182;2023-08-06T01:23:43;6.35;;;3.28;;
23743;SDS011;12052;53.478;10.182;2023-08-06T01:31:36;6.00;;;3.88;;
23743;SDS011;12052;53.478;10.182;2023-08-06T01:34:03;3.90;;;3.08;;
23743;SDS011;12052;53.478;10.182;2023-08-06T01:36:31;6.90;;;3.47;;
23743;SDS011;12052;53.478;10.182;2023-08-06T01:38:57;7.82;;;3.78;;
23743;SDS011;12052;53.478;10.182;2023-08-06T01:41:23;5.88;;;3.85;;
23743;SDS011;12052;53.478;10.182;2023-08-06T01:43:49;8.57;;;3.70;;
23743;SDS011;12052;53.478;10.182;2023-08-06T01:46:14;5.18;;;3.60;;
23743;SDS011;12052;53.478;10.182;2023-08-06T01:48:40;5.90;;;3.78;;
23743;SDS011;12052;53.478;10.182;2023-08-06T01:51:06;6.25;;;3.70;;
23743;SDS011;12052;53.478;10.182;2023-08-06T01:53:32;7.63;;;4.45;;
23743;SDS011;12052;53.478;10.182;2023-08-06T01:55:58;9.25;;;3.92;;
23743;SDS011;12052;53.478;10.182;2023-08-06T01:58:24;6.72;;;3.85;;
23743;SDS011;12052;53.478;10.182;2023-08-06T02:00:49;10.55;;;4.22;;
23743;SDS011;12052;53.478;10.182;2023-08-06T02:03:15;7.13;;;3.22;;
23743;SDS011;12052;53.478;10.182;2023-08-06T02:05:41;8.07;;;4.13;;
23743;SDS011;12052;53.478;10.182;2023-08-06T02:08:06;5.88;;;4.35;;
23743;SDS011;12052;53.478;10.182;2023-08-06T02:10:33;7.28;;;4.47;;
23743;SDS011;12052;53.478;10.182;2023-08-06T02:12:58;8.93;;;3.58;;
23743;SDS011;12052;53.478;10.182;2023-08-06T02:15:24;6.38;;;4.15;;
23743;SDS011;12052;53.478;10.182;2023-08-06T02:17:49;7.30;;;4.00;;
23743;SDS011;12052;53.478;10.182;2023-08-06T02:20:15;6.45;;;3.72;;
23743;SDS011;12052;53.478;10.182;2023-08-06T02:22:41;5.97;;;3.90;;
23743;SDS011;12052;53.478;10.182;2023-08-06T02:25:07;4.75;;;3.63;;
23743;SDS011;12052;53.478;10.182;2023-08-06T02:27:32;5.05;;;3.58;;
23743;SDS011;12052;53.478;10.182;2023-08-06T02:29:58;10.55;;;3.67;;
23743;SDS011;12052;53.478;10.182;2023-08-06T02:32:23;7.60;;;4.10;;
23743;SDS011;12052;53.478;10.182;2023-08-06T02:34:49;8.13;;;4.13;;
23743;SDS011;12052;53.478;10.182;2023-08-06T02:37:15;9.98;;;3.80;;
23743;SDS011;12052;53.478;10.182;2023-08-06T02:39:40;5.50;;;3.28;;
23743;SDS011;12052;53.478;10.182;2023-08-06T02:42:06;5.80;;;3.83;;
23743;SDS011;12052;53.478;10.182;2023-08-06T02:44:33;6.75;;;3.20;;
23743;SDS011;12052;53.478;10.182;2023-08-06T02:46:59;7.00;;;3.65;;
23743;SDS011;12052;53.478;10.182;2023-08-06T02:49:25;7.57;;;3.33;;
23743;SDS011;12052;53.478;10.182;2023-08-06T02:51:50;4.50;;;3.17;;
23743;SDS011;12052;53.478;10.182;2023-08-06T02:54:16;6.68;;;3.30;;
23743;SDS011;12052;53.478;10.182;2023-08-06T02:56:45;8.55;;;3.65;;
23743;SDS011;12052;53.478;10.182;2023-08-06T02:59:11;4.75;;;3.47;;
23743;SDS011;12052;53.478;10.182;2023-08-06T03:01:37;5.88;;;3.40;;
23743;SDS011;12052;53.478;10.182;2023-08-06T03:04:03;4.10;;;3.00;;
23743;SDS011;12052;53.478;10.182;2023-08-06T03:06:29;6.95;;;3.25;;
23743;SDS011;12052;53.478;10.182;2023-08-06T03:08:55;6.07;;;3.25;;
23743;SDS011;12052;53.478;10.182;2023-08-06T03:11:20;5.63;;;3.50;;
23743;SDS011;12052;53.478;10.182;2023-08-06T03:13:47;5.35;;;3.90;;
23743;SDS011;12052;53.478;10.182;2023-08-06T03:16:13;5.15;;;3.30;;
23743;SDS011;12052;53.478;10.182;2023-08-06T03:18:38;7.90;;;3.65;;
23743;SDS011;12052;53.478;10.182;2023-08-06T03:21:04;6.03;;;3.65;;
23743;SDS011;12052;53.478;10.182;2023-08-06T03:23:30;5.10;;;3.38;;
23743;SDS011;12052;53.478;10.182;2023-08-06T03:25:56;7.13;;;3.40;;
23743;SDS011;12052;53.478;10.182;2023-08-06T03:28:21;5.55;;;2.85;;
23743;SDS011;12052;53.478;10.182;2023-08-06T03:30:47;7.15;;;3.20;;
23743;SDS011;12052;53.478;10.182;2023-08-06T03:33:13;7.93;;;3.33;;
23743;SDS011;12052;53.478;10.182;2023-08-06T03:35:39;5.35;;;3.28;;
23743;SDS011;12052;53.478;10.182;2023-08-06T03:38:04;4.60;;;3.00;;
23743;SDS011;12052;53.478;10.182;2023-08-06T03:40:30;8.65;;;3.08;;
23743;SDS011;12052;53.478;10.182;2023-08-06T03:42:56;3.35;;;2.38;;
23743;SDS011;12052;53.478;10.182;2023-08-06T03:45:21;4.60;;;3.25;;
23743;SDS011;12052;53.478;10.182;2023-08-06T03:47:47;5.28;;;3.05;;
23743;SDS011;12052;53.478;10.182;2023-08-06T03:50:13;8.07;;;3.28;;
23743;SDS011;12052;53.478;10.182;2023-08-06T03:52:38;4.72;;;3.17;;
23743;SDS011;12052;53.478;10.182;2023-08-06T03:55:04;4.63;;;2.92;;
23743;SDS011;12052;53.478;10.182;2023-08-06T03:57:29;6.07;;;3.30;;
23743;SDS011;12052;53.478;10.182;2023-08-06T03:59:55;5.50;;;3.10;;
23743;SDS011;12052;53.478;10.182;2023-08-06T04:02:20;5.35;;;3.40;;
23743;SDS011;12052;53.478;10.182;2023-08-06T04:04:46;6.95;;;3.55;;
23743;SDS011;12052;53.478;10.182;2023-08-06T04:07:12;6.60;;;3.42;;
23743;SDS011;12052;53.478;10.182;2023-08-06T04:12:38;4.88;;;3.40;;
23743;SDS011;12052;53.478;10.182;2023-08-06T04:15:04;7.53;;;3.35;;
23743;SDS011;12052;53.478;10.182;2023-08-06T04:17:30;6.00;;;3.45;;
23743;SDS011;12052;53.478;10.182;2023-08-06T04:19:56;6.55;;;3.08;;
23743;SDS011;12052;53.478;10.182;2023-08-06T04:22:25;5.80;;;3.05;;
23743;SDS011;12052;53.478;10.182;2023-08-06T04:24:51;5.57;;;3.15;;
23743;SDS011;12052;53.478;10.182;2023-08-06T04:27:17;7.35;;;3.80;;
23743;SDS011;12052;53.478;10.182;2023-08-06T04:29:44;5.85;;;3.42;;
23743;SDS011;12052;53.478;10.182;2023-08-06T04:32:09;5.68;;;3.20;;
23743;SDS011;12052;53.478;10.182;2023-08-06T04:34:36;5.90;;;3.05;;
23743;SDS011;12052;53.478;10.182;2023-08-06T04:37:02;6.72;;;3.80;;
23743;SDS011;12052;53.478;10.182;2023-08-06T04:39:28;8.05;;;3.70;;
23743;SDS011;12052;53.478;10.182;2023-08-06T04:41:55;6.70;;;3.47;;
23743;SDS011;12052;53.478;10.182;2023-08-06T04:44:22;6.82;;;3.60;;
23743;SDS011;12052;53.478;10.182;2023-08-06T04:46:48;6.45;;;3.55;;
23743;SDS011;12052;53.478;10.182;2023-08-06T04:49:13;4.90;;;3.42;;
23743;SDS011;12052;53.478;10.182;2023-08-06T04:51:39;6.55;;;3.75;;
23743;SDS011;12052;53.478;10.182;2023-08-06T04:54:05;7.05;;;3.65;;
23743;SDS011;12052;53.478;10.182;2023-08-06T04:56:30;5.57;;;3.20;;
23743;SDS011;12052;53.478;10.182;2023-08-06T04:58:57;6.30;;;3.55;;
23743;SDS011;12052;53.478;10.182;2023-08-06T05:01:23;6.85;;;3.55;;
23743;SDS011;12052;53.478;10.182;2023-08-06T05:03:49;7.65;;;4.20;;
23743;SDS011;12052;53.478;10.182;2023-08-06T05:06:14;9.90;;;3.65;;
23743;SDS011;12052;53.478;10.182;2023-08-06T05:08:40;11.30;;;4.05;;
23743;SDS011;12052;53.478;10.182;2023-08-06T05:11:05;7.50;;;3.70;;
23743;SDS011;12052;53.478;10.182;2023-08-06T05:13:31;7.47;;;4.07;;
23743;SDS011;12052;53.478;10.182;2023-08-06T05:15:56;6.90;;;3.72;;
23743;SDS011;12052;53.478;10.182;2023-08-06T05:18:23;7.60;;;4.28;;
23743;SDS011;12052;53.478;10.182;2023-08-06T05:20:48;7.20;;;4.15;;
23743;SDS011;12052;53.478;10.182;2023-08-06T05:23:14;6.13;;;3.72;;
23743;SDS011;12052;53.478;10.182;2023-08-06T05:25:40;9.15;;;4.53;;
23743;SDS011;12052;53.478;10.182;2023-08-06T05:28:06;10.48;;;4.18;;
23743;SDS011;12052;53.478;10.182;2023-08-06T05:30:31;8.10;;;3.85;;
23743;SDS011;12052;53.478;10.182;2023-08-06T05:32:57;5.93;;;3.38;;
23743;SDS011;12052;53.478;10.182;2023-08-06T05:35:23;11.98;;;4.47;;
23743;SDS011;12052;53.478;10.182;2023-08-06T05:37:49;4.75;;;3.65;;
23743;SDS011;12052;53.478;10.182;2023-08-06T05:40:15;6.32;;;3.70;;
23743;SDS011;12052;53.478;10.182;2023-08-06T05:42:41;12.80;;;4.63;;
23743;SDS011;12052;53.478;10.182;2023-08-06T05:45:07;8.93;;;4.15;;
23743;SDS011;12052;53.478;10.182;2023-08-06T05:47:33;8.93;;;3.72;;
23743;SDS011;12052;53.478;10.182;2023-08-06T05:49:58;6.50;;;3.42;;
23743;SDS011;12052;53.478;10.182;2023-08-06T05:52:24;7.07;;;4.18;;
23743;SDS011;12052;53.478;10.182;2023-08-06T05:54:50;5.55;;;3.50;;
23743;SDS011;12052;53.478;10.182;2023-08-06T05:57:16;8.82;;;4.00;;
23743;SDS011;12052;53.478;10.182;2023-08-06T05:59:42;9.23;;;4.03;;
23743;SDS011;12052;53.478;10.182;2023-08-06T06:02:08;9.52;;;4.15;;
23743;SDS011;12052;53.478;10.182;2023-08-06T06:04:33;6.15;;;4.00;;
23743;SDS011;12052;53.478;10.182;2023-08-06T06:06:59;7.63;;;4.32;;
23743;SDS011;12052;53.478;10.182;2023-08-06T06:09:25;8.38;;;3.95;;
23743;SDS011;12052;53.478;10.182;2023-08-06T06:11:50;9.43;;;4.03;;
23743;SDS011;12052;53.478;10.182;2023-08-06T06:14:17;7.57;;;3.90;;
23743;SDS011;12052;53.478;10.182;2023-08-06T06:16:43;9.85;;;4.07;;
23743;SDS011;12052;53.478;10.182;2023-08-06T06:19:08;8.77;;;4.25;;
23743;SDS011;12052;53.478;10.182;2023-08-06T06:21:34;7.82;;;4.72;;
23743;SDS011;12052;53.478;10.182;2023-08-06T06:23:59;8.30;;;4.72;;
23743;SDS011;12052;53.478;10.182;2023-08-06T06:26:25;9.85;;;4.20;;
23743;SDS011;12052;53.478;10.182;2023-08-06T06:28:51;6.28;;;4.40;;
23743;SDS011;12052;53.478;10.182;2023-08-06T06:31:16;8.52;;;4.70;;
23743;SDS011;12052;53.478;10.182;2023-08-06T06:33:42;8.32;;;4.38;;
23743;SDS011;12052;53.478;10.182;2023-08-06T06:36:07;7.70;;;4.15;;
23743;SDS011;12052;53.478;10.182;2023-08-06T06:38:33;9.75;;;4.50;;
23743;SDS011;12052;53.478;10.182;2023-08-06T06:40:59;7.22;;;4.50;;
23743;SDS011;12052;53.478;10.182;2023-08-06T06:43:25;6.30;;;4.25;;
23743;SDS011;12052;53.478;10.182;2023-08-06T06:45:57;8.50;;;4.38;;
23743;SDS011;12052;53.478;10.182;2023-08-06T06:48:25;8.85;;;4.15;;
23743;SDS011;12052;53.478;10.182;2023-08-06T06:50:51;12.63;;;4.72;;
23743;SDS011;12052;53.478;10.182;2023-08-06T06:53:17;6.18;;;3.92;;
23743;SDS011;12052;53.478;10.182;2023-08-06T06:55:42;8.25;;;4.38;;
23743;SDS011;12052;53.478;10.182;2023-08-06T06:58:08;8.35;;;4.70;;
23743;SDS011;12052;53.478;10.182;2023-08-06T07:00:37;8.45;;;4.40;;
23743;SDS011;12052;53.478;10.182;2023-08-06T07:03:03;8.45;;;4.43;;
23743;SDS011;12052;53.478;10.182;2023-08-06T07:05:28;10.27;;;5.03;;
23743;SDS011;12052;53.478;10.182;2023-08-06T07:07:54;9.13;;;5.10;;
23743;SDS011;12052;53.478;10.182;2023-08-06T07:10:20;9.75;;;5.03;;
23743;SDS011;12052;53.478;10.182;2023-08-06T07:12:45;8.35;;;4.57;;
23743;SDS011;12052;53.478;10.182;2023-08-06T07:15:11;9.93;;;5.22;;
23743;SDS011;12052;53.478;10.182;2023-08-06T07:17:37;9.52;;;4.53;;
23743;SDS011;12052;53.478;10.182;2023-08-06T07:20:02;9.55;;;4.63;;
23743;SDS011;12052;53.478;10.182;2023-08-06T07:22:29;7.85;;;4.53;;
23743;SDS011;12052;53.478;10.182;2023-08-06T07:24:54;7.60;;;4.65;;
23743;SDS011;12052;53.478;10.182;2023-08-06T07:27:20;12.98;;;5.00;;
23743;SDS011;12052;53.478;10.182;2023-08-06T07:29:46;8.77;;;4.85;;
23743;SDS011;12052;53.478;10.182;2023-08-06T07:32:13;11.32;;;4.25;;
23743;SDS011;12052;53.478;10.182;2023-08-06T07:34:38;9.10;;;4.82;;
23743;SDS011;12052;53.478;10.182;2023-08-06T07:37:04;11.30;;;5.32;;
23743;SDS011;12052;53.478;10.182;2023-08-06T07:39:30;7.75;;;4.78;;
23743;SDS011;12052;53.478;10.182;2023-08-06T07:41:56;10.13;;;5.68;;
23743;SDS011;12052;53.478;10.182;2023-08-06T07:44:22;10.32;;;4.53;;
23743;SDS011;12052;53.478;10.182;2023-08-06T07:46:48;11.35;;;4.47;;
23743;SDS011;12052;53.478;10.182;2023-08-06T07:49:14;10.23;;;5.53;;
23743;SDS011;12052;53.478;10.182;2023-08-06T07:51:39;7.03;;;4.63;;
23743;SDS011;12052;53.478;10.182;2023-08-06T07:54:05;10.23;;;5.82;;
23743;SDS011;12052;53.478;10.182;2023-08-06T07:56:31;8.05;;;5.43;;
23743;SDS011;12052;53.478;10.182;2023-08-06T07:58:57;9.13;;;4.88;;
23743;SDS011;12052;53.478;10.182;2023-08-06T08:01:22;7.22;;;4.88;;
23743;SDS011;12052;53.478;10.182;2023-08-06T08:03:48;12.23;;;4.68;;
23743;SDS011;12052;53.478;10.182;2023-08-06T08:06:13;7.43;;;4.50;;
23743;SDS011;12052;53.478;10.182;2023-08-06T08:08:39;11.52;;;5.18;;
23743;SDS011;12052;53.478;10.182;2023-08-06T08:11:05;13.57;;;5.45;;
23743;SDS011;12052;53.478;10.182;2023-08-06T08:13:30;11.02;;;5.40;;
23743;SDS011;12052;53.478;10.182;2023-08-06T08:15:57;9.90;;;4.75;;
23743;SDS011;12052;53.478;10.182;2023-08-06T08:18:23;8.35;;;4.95;;
23743;SDS011;12052;53.478;10.182;2023-08-06T08:20:49;8.80;;;4.95;;
23743;SDS011;12052;53.478;10.182;2023-08-06T08:23:14;8.45;;;5.28;;
23743;SDS011;12052;53.478;10.182;2023-08-06T08:25:40;8.70;;;4.80;;
23743;SDS011;12052;53.478;10.182;2023-08-06T08:28:07;8.27;;;4.50;;
23743;SDS011;12052;53.478;10.182;2023-08-06T08:30:32;10.75;;;4.80;;
23743;SDS011;12052;53.478;10.182;2023-08-06T08:32:58;8.45;;;5.13;;
23743;SDS011;12052;53.478;10.182;2023-08-06T08:35:24;8.57;;;5.28;;
23743;SDS011;12052;53.478;10.182;2023-08-06T08:37:49;7.78;;;4.78;;
23743;SDS011;12052;53.478;10.182;2023-08-06T08:40:15;8.55;;;4.97;;
23743;SDS011;12052;53.478;10.182;2023-08-06T08:42:41;10.40;;;5.80;;
23743;SDS011;12052;53.478;10.182;2023-08-06T08:45:14;15.07;;;5.40;;
23743;SDS011;12052;53.478;10.182;2023-08-06T08:47:43;9.27;;;5.45;;
23743;SDS011;12052;53.478;10.182;2023-08-06T08:50:09;8.77;;;4.75;;
23743;SDS011;12052;53.478;10.182;2023-08-06T08:52:40;10.50;;;5.35;;
23743;SDS011;12052;53.478;10.182;2023-08-06T08:55:06;10.40;;;4.78;;
23743;SDS011;12052;53.478;10.182;2023-08-06T08:57:33;9.45;;;5.18;;
23743;SDS011;12052;53.478;10.182;2023-08-06T08:59:58;6.82;;;4.25;;
23743;SDS011;12052;53.478;10.182;2023-08-06T09:02:25;13.48;;;5.10;;
23743;SDS011;12052;53.478;10.182;2023-08-06T09:04:55;8.55;;;5.28;;
23743;SDS011;12052;53.478;10.182;2023-08-06T09:07:24;7.63;;;5.15;;
23743;SDS011;12052;53.478;10.182;2023-08-06T09:09:51;10.02;;;5.15;;
23743;SDS011;12052;53.478;10.182;2023-08-06T09:12:18;9.48;;;5.35;;
23743;SDS011;12052;53.478;10.182;2023-08-06T09:14:43;10.88;;;5.03;;
23743;SDS011;12052;53.478;10.182;2023-08-06T09:17:09;7.78;;;5.03;;
23743;SDS011;12052;53.478;10.182;2023-08-06T09:19:36;10.30;;;5.38;;
23743;SDS011;12052;53.478;10.182;2023-08-06T09:22:02;8.73;;;5.32;;
23743;SDS011;12052;53.478;10.182;2023-08-06T09:24:28;9.73;;;5.35;;
23743;SDS011;12052;53.478;10.182;2023-08-06T09:26:53;19.10;;;6.15;;
23743;SDS011;12052;53.478;10.182;2023-08-06T09:29:19;10.00;;;5.60;;
23743;SDS011;12052;53.478;10.182;2023-08-06T09:31:48;14.07;;;5.75;;
23743;SDS011;12052;53.478;10.182;2023-08-06T09:34:19;8.40;;;5.07;;
23743;SDS011;12052;53.478;10.182;2023-08-06T09:36:49;11.93;;;6.07;;
23743;SDS011;12052;53.478;10.182;2023-08-06T09:39:20;12.50;;;5.95;;
23743;SDS011;12052;53.478;10.182;2023-08-06T09:41:56;10.98;;;5.85;;
23743;SDS011;12052;53.478;10.182;2023-08-06T09:44:24;11.80;;;6.32;;
23743;SDS011;12052;53.478;10.182;2023-08-06T09:46:52;10.65;;;5.50;;
23743;SDS011;12052;53.478;10.182;2023-08-06T09:49:19;10.93;;;5.97;;
23743;SDS011;12052;53.478;10.182;2023-08-06T09:51:50;12.48;;;6.00;;
23743;SDS011;12052;53.478;10.182;2023-08-06T09:54:17;13.82;;;6.50;;
23743;SDS011;12052;53.478;10.182;2023-08-06T09:56:45;15.68;;;6.88;;
23743;SDS011;12052;53.478;10.182;2023-08-06T09:59:12;12.25;;;6.40;;
23743;SDS011;12052;53.478;10.182;2023-08-06T10:01:38;10.77;;;6.18;;
23743;SDS011;12052;53.478;10.182;2023-08-06T10:04:04;10.23;;;6.22;;
23743;SDS011;12052;53.478;10.182;2023-08-06T10:06:35;14.45;;;6.88;;
23743;SDS011;12052;53.478;10.182;2023-08-06T10:09:01;11.07;;;5.88;;
23743;SDS011;12052;53.478;10.182;2023-08-06T10:11:28;13.15;;;7.03;;
23743;SDS011;12052;53.478;10.182;2023-08-06T10:14:03;10.45;;;7.10;;
23743;SDS011;12052;53.478;10.182;2023-08-06T10:16:31;15.95;;;7.00;;
23743;SDS011;12052;53.478;10.182;2023-08-06T10:18:59;16.80;;;6.80;;
23743;SDS011;12052;53.478;10.182;2023-08-06T10:21:25;10.60;;;6.28;;
23743;SDS011;12052;53.478;10.182;2023-08-06T10:23:55;9.18;;;5.90;;
23743;SDS011;12052;53.478;10.182;2023-08-06T10:26:25;12.55;;;5.57;;
23743;SDS011;12052;53.478;10.182;2023-08-06T10:28:52;9.55;;;5.57;;
23743;SDS011;12052;53.478;10.182;2023-08-06T10:31:18;8.40;;;5.57;;
23743;SDS011;12052;53.478;10.182;2023-08-06T10:33:47;9.30;;;5.82;;
23743;SDS011;12052;53.478;10.182;2023-08-06T10:36:13;8.30;;;5.72;;
23743;SDS011;12052;53.478;10.182;2023-08-06T10:38:49;10.35;;;6.00;;
23743;SDS011;12052;53.478;10.182;2023-08-06T10:41:16;10.13;;;6.50;;
23743;SDS011;12052;53.478;10.182;2023-08-06T10:43:52;10.70;;;5.88;;
23743;SDS011;12052;53.478;10.182;2023-08-06T10:46:29;6.72;;;4.45;;
23743;SDS011;12052;53.478;10.182;2023-08-06T10:48:55;9.18;;;4.68;;
23743;SDS011;12052;53.478;10.182;2023-08-06T10:51:21;8.25;;;5.65;;
23743;SDS011;12052;53.478;10.182;2023-08-06T10:53:47;10.38;;;5.28;;
23743;SDS011;12052;53.478;10.182;2023-08-06T10:58:44;6.32;;;4.20;;
23743;SDS011;12052;53.478;10.182;2023-08-06T11:01:11;7.38;;;4.93;;
23743;SDS011;12052;53.478;10.182;2023-08-06T11:03:37;7.90;;;5.20;;
23743;SDS011;12052;53.478;10.182;2023-08-06T11:06:04;8.82;;;4.50;;
23743;SDS011;12052;53.478;10.182;2023-08-06T11:08:36;9.75;;;5.00;;
23743;SDS011;12052;53.478;10.182;2023-08-06T11:11:15;8.23;;;4.97;;
23743;SDS011;12052;53.478;10.182;2023-08-06T11:13:45;8.20;;;4.82;;
23743;SDS011;12052;53.478;10.182;2023-08-06T11:16:15;9.57;;;5.18;;
23743;SDS011;12052;53.478;10.182;2023-08-06T11:18:43;6.85;;;4.63;;
23743;SDS011;12052;53.478;10.182;2023-08-06T11:21:09;10.88;;;5.70;;
23743;SDS011;12052;53.478;10.182;2023-08-06T11:23:36;13.50;;;4.82;;
23743;SDS011;12052;53.478;10.182;2023-08-06T11:26:02;7.30;;;4.85;;
23743;SDS011;12052;53.478;10.182;2023-08-06T11:28:28;9.48;;;4.95;;
23743;SDS011;12052;53.478;10.182;2023-08-06T11:30:54;6.85;;;4.45;;
23743;SDS011;12052;53.478;10.182;2023-08-06T11:33:25;6.63;;;4.82;;
23743;SDS011;12052;53.478;10.182;2023-08-06T11:35:52;5.85;;;4.03;;
23743;SDS011;12052;53.478;10.182;2023-08-06T11:38:19;7.43;;;4.30;;
23743;SDS011;12052;53.478;10.182;2023-08-06T11:40:45;7.85;;;4.35;;
23743;SDS011;12052;53.478;10.182;2023-08-06T11:43:11;6.97;;;4.05;;
23743;SDS011;12052;53.478;10.182;2023-08-06T11:45:38;6.82;;;4.60;;
23743;SDS011;12052;53.478;10.182;2023-08-06T11:48:03;7.10;;;3.80;;
23743;SDS011;12052;53.478;10.182;2023-08-06T11:50:30;7.13;;;4.22;;
23743;SDS011;12052;53.478;10.182;2023-08-06T11:52:59;11.43;;;4.18;;
23743;SDS011;12052;53.478;10.182;2023-08-06T11:55:26;6.40;;;4.20;;
23743;SDS011;12052;53.478;10.182;2023-08-06T11:57:53;7.38;;;3.88;;
23743;SDS011;12052;53.478;10.182;2023-08-06T12:00:19;5.80;;;3.95;;
23743;SDS011;12052;53.478;10.182;2023-08-06T12:02:47;6.95;;;4.60;;
23743;SDS011;12052;53.478;10.182;2023-08-06T12:05:15;9.30;;;4.95;;
23743;SDS011;12052;53.478;10.182;2023-08-06T12:07:42;8.68;;;4.40;;
23743;SDS011;12052;53.478;10.182;2023-08-06T12:10:09;7.40;;;4.85;;
23743;SDS011;12052;53.478;10.182;2023-08-06T12:12:35;9.45;;;5.10;;
23743;SDS011;12052;53.478;10.182;2023-08-06T12:15:02;7.43;;;4.82;;
23743;SDS011;12052;53.478;10.182;2023-08-06T12:17:28;7.40;;;4.72;;
23743;SDS011;12052;53.478;10.182;2023-08-06T12:19:54;9.35;;;5.10;;
23743;SDS011;12052;53.478;10.182;2023-08-06T12:22:20;8.77;;;4.82;;
23743;SDS011;12052;53.478;10.182;2023-08-06T12:24:46;7.13;;;4.80;;
23743;SDS011;12052;53.478;10.182;2023-08-06T12:27:12;6.30;;;4.30;;
23743;SDS011;12052;53.478;10.182;2023-08-06T12:29:41;6.25;;;4.57;;
23743;SDS011;12052;53.478;10.182;2023-08-06T12:32:11;7.55;;;5.07;;
23743;SDS011;12052;53.478;10.182;2023-08-06T12:34:38;10.00;;;4.95;;
23743;SDS011;12052;53.478;10.182;2023-08-06T12:37:04;9.38;;;5.07;;
23743;SDS011;12052;53.478;10.182;2023-08-06T12:39:30;5.80;;;4.25;;
23743;SDS011;12052;53.478;10.182;2023-08-06T12:41:57;9.70;;;5.25;;
23743;SDS011;12052;53.478;10.182;2023-08-06T12:44:24;8.10;;;5.20;;
23743;SDS011;12052;53.478;10.182;2023-08-06T12:46:50;8.02;;;4.53;;
23743;SDS011;12052;53.478;10.182;2023-08-06T12:49:19;6.68;;;4.32;;
23743;SDS011;12052;53.478;10.182;2023-08-06T12:51:51;6.28;;;4.35;;
23743;SDS011;12052;53.478;10.182;2023-08-06T12:54:17;6.78;;;4.68;;
23743;SDS011;12052;53.478;10.182;2023-08-06T12:56:43;11.77;;;5.03;;
23743;SDS011;12052;53.478;10.182;2023-08-06T12:59:13;6.22;;;3.90;;
23743;SDS011;12052;53.478;10.182;2023-08-06T13:01:40;7.07;;;3.83;;
23743;SDS011;12052;53.478;10.182;2023-08-06T13:04:06;5.82;;;4.28;;
23743;SDS011;12052;53.478;10.182;2023-08-06T13:06:31;8.25;;;4.13;;
23743;SDS011;12052;53.478;10.182;2023-08-06T13:09:02;6.32;;;3.80;;
23743;SDS011;12052;53.478;10.182;2023-08-06T13:11:28;5.80;;;4.15;;
23743;SDS011;12052;53.478;10.182;2023-08-06T13:13:55;7.22;;;4.03;;
23743;SDS011;12052;53.478;10.182;2023-08-06T13:16:21;5.55;;;3.90;;
23743;SDS011;12052;53.478;10.182;2023-08-06T13:18:47;8.18;;;4.55;;
23743;SDS011;12052;53.478;10.182;2023-08-06T13:21:13;6.10;;;3.85;;
23743;SDS011;12052;53.478;10.182;2023-08-06T13:23:38;8.48;;;3.53;;
23743;SDS011;12052;53.478;10.182;2023-08-06T13:26:04;9.63;;;4.20;;
23743;SDS011;12052;53.478;10.182;2023-08-06T13:28:29;5.60;;;3.83;;
23743;SDS011;12052;53.478;10.182;2023-08-06T13:30:55;6.82;;;4.45;;
23743;SDS011;12052;53.478;10.182;2023-08-06T13:33:20;8.75;;;4.28;;
23743;SDS011;12052;53.478;10.182;2023-08-06T13:35:46;5.80;;;3.97;;
23743;SDS011;12052;53.478;10.182;2023-08-06T13:38:12;10.50;;;4.10;;
23743;SDS011;12052;53.478;10.182;2023-08-06T13:40:37;5.72;;;3.90;;
23743;SDS011;12052;53.478;10.182;2023-08-06T13:43:03;4.38;;;3.50;;
23743;SDS011;12052;53.478;10.182;2023-08-06T13:45:28;6.25;;;3.83;;
23743;SDS011;12052;53.478;10.182;2023-08-06T13:47:56;9.40;;;4.68;;
23743;SDS011;12052;53.478;10.182;2023-08-06T13:50:21;6.07;;;4.15;;
23743;SDS011;12052;53.478;10.182;2023-08-06T13:52:50;8.43;;;4.38;;
23743;SDS011;12052;53.478;10.182;2023-08-06T13:55:18;7.55;;;3.92;;
23743;SDS011;12052;53.478;10.182;2023-08-06T13:57:43;7.85;;;4.15;;
23743;SDS011;12052;53.478;10.182;2023-08-06T14:00:09;9.70;;;4.10;;
23743;SDS011;12052;53.478;10.182;2023-08-06T14:02:35;5.97;;;3.92;;
23743;SDS011;12052;53.478;10.182;2023-08-06T14:05:01;5.68;;;4.10;;
23743;SDS011;12052;53.478;10.182;2023-08-06T14:07:26;5.82;;;3.92;;
23743;SDS011;12052;53.478;10.182;2023-08-06T14:09:52;5.97;;;3.70;;
23743;SDS011;12052;53.478;10.182;2023-08-06T14:12:17;6.40;;;4.35;;
23743;SDS011;12052;53.478;10.182;2023-08-06T14:14:43;7.28;;;4.32;;
23743;SDS011;12052;53.478;10.182;2023-08-06T14:17:09;7.15;;;3.58;;
23743;SDS011;12052;53.478;10.182;2023-08-06T14:19:34;6.25;;;4.28;;
23743;SDS011;12052;53.478;10.182;2023-08-06T14:22:00;5.53;;;3.53;;
23743;SDS011;12052;53.478;10.182;2023-08-06T14:24:25;8.68;;;4.32;;
23743;SDS011;12052;53.478;10.182;2023-08-06T14:26:51;6.90;;;4.28;;
23743;SDS011;12052;53.478;10.182;2023-08-06T14:29:17;5.18;;;3.67;;
23743;SDS011;12052;53.478;10.182;2023-08-06T14:31:43;7.00;;;4.18;;
23743;SDS011;12052;53.478;10.182;2023-08-06T14:34:08;8.00;;;3.72;;
23743;SDS011;12052;53.478;10.182;2023-08-06T14:36:34;5.03;;;3.58;;
23743;SDS011;12052;53.478;10.182;2023-08-06T14:39:00;7.57;;;4.50;;
23743;SDS011;12052;53.478;10.182;2023-08-06T14:41:26;10.50;;;3.38;;
23743;SDS011;12052;53.478;10.182;2023-08-06T14:43:51;6.38;;;3.80;;
23743;SDS011;12052;53.478;10.182;2023-08-06T14:46:18;4.55;;;2.67;;